createdAt,value
2024-05-09T00:02:53.333Z,102661.22
2024-05-09T00:06:56.479Z,102663.13
2024-05-09T00:10:58.412Z,102663.16
2024-05-09T00:15:00.316Z,102663.16
2024-05-09T00:19:03.275Z,102662.31
2024-05-09T00:23:07.480Z,102664.16
2024-05-09T00:27:13.246Z,102665.03
2024-05-09T00:31:15.466Z,102655.22
2024-05-09T00:35:18.245Z,102662.31
2024-05-09T00:39:20.253Z,102664.13
2024-05-09T00:43:22.029Z,102661.38
2024-05-09T00:47:24.276Z,102656.84
2024-05-09T00:51:26.979Z,102650.44
2024-05-09T00:55:29.642Z,102652.28
2024-05-09T00:59:33.414Z,102648.75
2024-05-09T01:03:35.714Z,102651.13
2024-05-09T01:07:37.612Z,102647.41
2024-05-09T01:11:40.830Z,102658.19
2024-05-09T01:15:43.420Z,102662.09
2024-05-09T01:19:46.341Z,102665.06
2024-05-09T01:23:48.294Z,102667.72
2024-05-09T01:27:50.006Z,102668.66
2024-05-09T01:31:58.942Z,102657.22
2024-05-09T01:36:00.861Z,102656.47
2024-05-09T01:40:03.666Z,102654.41
2024-05-09T01:44:05.712Z,102653.97
2024-05-09T01:48:08.854Z,102656.81
2024-05-09T01:52:10.750Z,102650.78
2024-05-09T01:56:12.533Z,102650.22
2024-05-09T02:00:22.127Z,102650.00
2024-05-09T02:04:31.541Z,102647.53
2024-05-09T02:08:33.976Z,102647.69
2024-05-09T02:12:35.885Z,102653.97
2024-05-09T02:16:38.682Z,102647.66
2024-05-09T02:20:42.085Z,102648.41
2024-05-09T02:24:44.517Z,102652.78
2024-05-09T02:28:46.582Z,102650.97
2024-05-09T02:32:49.993Z,102647.47
2024-05-09T02:36:55.982Z,102643.06
2024-05-09T02:40:57.786Z,102645.94
2024-05-09T02:44:59.685Z,102645.50
2024-05-09T02:49:01.674Z,102647.38
2024-05-09T02:53:09.526Z,102632.97
2024-05-09T02:57:11.822Z,102637.72
2024-05-09T03:01:13.606Z,102638.94
2024-05-09T03:05:16.022Z,102638.06
2024-05-09T03:09:18.059Z,102633.19
2024-05-09T03:13:20.050Z,102647.38
2024-05-09T03:17:24.046Z,102644.69
2024-05-09T03:21:26.147Z,102645.56
2024-05-09T03:25:29.354Z,102644.66
2024-05-09T03:29:31.227Z,102643.97
2024-05-09T03:33:33.668Z,102644.78
2024-05-09T03:37:35.884Z,102645.69
2024-05-09T03:41:38.148Z,102648.34
2024-05-09T03:45:39.944Z,102646.56
2024-05-09T03:49:41.734Z,102642.53
2024-05-09T03:53:43.810Z,102637.84
2024-05-09T03:57:45.751Z,102639.31
2024-05-09T04:01:47.857Z,102636.50
2024-05-09T04:05:49.988Z,102643.94
2024-05-09T04:09:53.245Z,102646.81
2024-05-09T04:13:56.661Z,102643.41
2024-05-09T04:17:58.657Z,102647.22
2024-05-09T04:22:00.891Z,102653.38
2024-05-09T04:26:04.440Z,102653.34
2024-05-09T04:30:10.081Z,102654.34
2024-05-09T04:34:17.994Z,102645.34
2024-05-09T04:38:19.881Z,102639.13
2024-05-09T04:42:22.269Z,102644.53
2024-05-09T04:46:24.144Z,102651.13
2024-05-09T04:50:35.357Z,102662.72
2024-05-09T04:54:39.952Z,102674.94
2024-05-09T04:58:41.714Z,102688.56
2024-05-09T05:02:43.586Z,102695.44
2024-05-09T05:06:45.552Z,102696.88
2024-05-09T05:10:48.629Z,102693.50
2024-05-09T05:14:53.105Z,102681.78
2024-05-09T05:18:55.080Z,102669.44
2024-05-09T05:22:56.911Z,102663.19
2024-05-09T05:26:59.097Z,102662.81
2024-05-09T05:31:01.009Z,102660.59
2024-05-09T05:35:03.118Z,102659.53
2024-05-09T05:39:04.911Z,102658.72
2024-05-09T05:43:11.293Z,102664.31
2024-05-09T05:47:13.151Z,102670.09
2024-05-09T05:51:15.121Z,102670.84
2024-05-09T05:55:17.148Z,102661.66
2024-05-09T05:59:19.555Z,102665.28
2024-05-09T06:03:21.454Z,102672.22
2024-05-09T06:07:23.420Z,102676.53
2024-05-09T06:11:26.101Z,102674.06
2024-05-09T06:15:28.196Z,102671.63
2024-05-09T06:19:30.212Z,102669.19
2024-05-09T06:23:32.974Z,102672.59
2024-05-09T06:27:35.068Z,102668.78
2024-05-09T06:31:41.545Z,102676.09
2024-05-09T06:35:44.400Z,102678.03
2024-05-09T06:39:46.683Z,102677.91
2024-05-09T06:43:48.499Z,102673.72
2024-05-09T06:47:50.609Z,102678.44
2024-05-09T06:51:52.383Z,102673.00
2024-05-09T06:55:54.293Z,102668.84
2024-05-09T06:59:59.694Z,102655.59
2024-05-09T07:04:01.927Z,102653.31
2024-05-09T07:08:04.967Z,102668.06
2024-05-09T07:12:07.432Z,102665.31
2024-05-09T07:16:09.318Z,102669.25
2024-05-09T07:20:16.553Z,102670.88
2024-05-09T07:24:26.675Z,102671.94
2024-05-09T07:28:28.618Z,102674.38
2024-05-09T07:32:30.504Z,102679.66
2024-05-09T07:36:32.615Z,102683.50
2024-05-09T07:40:36.905Z,102676.22
2024-05-09T07:44:39.163Z,102678.41
2024-05-09T07:53:34.604Z,102672.19
2024-05-09T07:57:08.458Z,102681.88
2024-05-09T08:01:10.638Z,102676.06
2024-05-09T08:05:12.899Z,102677.97
2024-05-09T08:09:20.910Z,102672.84
2024-05-09T08:13:23.384Z,102674.13
2024-05-09T08:17:25.345Z,102658.03
2024-05-09T08:21:27.195Z,102655.66
2024-05-09T08:25:29.076Z,102650.47
2024-05-09T08:29:32.036Z,102643.16
2024-05-09T08:33:34.088Z,102645.44
2024-05-09T08:37:38.886Z,102635.63
2024-05-09T08:41:42.717Z,102639.16
2024-05-09T08:45:46.951Z,102642.56
2024-05-09T08:49:50.732Z,102641.56
2024-05-09T08:53:53.435Z,102650.06
2024-05-09T08:57:56.135Z,102649.19
2024-05-09T09:01:59.225Z,102645.97
2024-05-09T09:06:06.165Z,102646.09
2024-05-09T09:10:08.813Z,102647.47
2024-05-09T09:14:10.743Z,102646.09
2024-05-09T09:18:13.711Z,102653.47
2024-05-09T09:22:16.061Z,102654.47
2024-05-09T09:26:18.355Z,102647.59
2024-05-09T09:30:34.046Z,102647.59
2024-05-09T09:34:38.762Z,102643.75
2024-05-09T09:38:41.309Z,102635.41
2024-05-09T09:42:44.023Z,102634.53
2024-05-09T09:46:47.123Z,102643.06
2024-05-09T09:50:51.501Z,102637.16
2024-05-09T09:54:54.454Z,102631.59
2024-05-09T09:58:58.257Z,102640.34
2024-05-09T10:03:01.318Z,102627.41
2024-05-09T10:07:08.481Z,102624.38
2024-05-09T10:11:10.691Z,102629.09
2024-05-09T10:15:12.740Z,102627.31
2024-05-09T10:19:27.659Z,102621.63
2024-05-09T10:23:32.365Z,102618.13
2024-05-09T10:27:34.423Z,102605.66
2024-05-09T10:31:39.510Z,102614.28
2024-05-09T10:35:51.444Z,102603.63
2024-05-09T10:39:57.656Z,102612.81
2024-05-09T10:43:59.769Z,102592.31
2024-05-09T10:48:01.794Z,102595.03
2024-05-09T10:52:04.265Z,102598.22
2024-05-09T10:56:06.344Z,102602.34
2024-05-09T11:00:15.621Z,102592.78
2024-05-09T11:04:21.311Z,102593.53
2024-05-09T11:08:24.296Z,102589.06
2024-05-09T11:12:27.642Z,102583.31
2024-05-09T11:16:30.175Z,102584.47
2024-05-09T11:20:38.534Z,102576.94
2024-05-09T11:24:41.019Z,102575.25
2024-05-09T11:28:44.951Z,102565.59
2024-05-09T11:32:47.172Z,102568.22
2024-05-09T11:36:49.007Z,102557.84
2024-05-09T11:40:53.059Z,102558.53
2024-05-09T11:44:54.961Z,102548.13
2024-05-09T11:48:57.287Z,102556.16
2024-05-09T11:52:59.758Z,102558.53
2024-05-09T11:57:01.522Z,102546.28
2024-05-09T12:01:03.504Z,102546.59
2024-05-09T12:05:06.058Z,102540.94
2024-05-09T12:09:07.985Z,102544.50
2024-05-09T12:13:10.775Z,102547.72
2024-05-09T12:17:12.915Z,102541.56
2024-05-09T12:21:17.340Z,102545.38
2024-05-09T12:25:19.313Z,102536.41
2024-05-09T12:29:21.231Z,102533.47
2024-05-09T12:33:23.196Z,102521.75
2024-05-09T12:37:25.595Z,102522.75
2024-05-09T12:41:27.772Z,102506.97
2024-05-09T12:45:29.593Z,102508.56
2024-05-09T12:49:33.441Z,102510.94
2024-05-09T12:53:36.226Z,102510.00
2024-05-09T12:57:38.426Z,102501.88
2024-05-09T13:01:40.384Z,102494.97
2024-05-09T13:05:44.651Z,102499.91
2024-05-09T13:09:47.471Z,102487.06
2024-05-09T13:13:49.425Z,102498.41
2024-05-09T13:17:51.846Z,102490.38
2024-05-09T13:21:54.020Z,102472.81
2024-05-09T13:25:55.895Z,102473.31
2024-05-09T13:29:57.783Z,102475.09
2024-05-09T13:34:00.153Z,102470.13
2024-05-09T13:38:02.574Z,102459.59
2024-05-09T13:42:04.643Z,102464.38
2024-05-09T13:46:07.995Z,102451.28
2024-05-09T13:50:28.224Z,102452.88
2024-05-09T13:54:44.117Z,102441.38
2024-05-09T13:58:58.422Z,102432.41
2024-05-09T14:03:00.752Z,102441.50
2024-05-09T14:07:22.425Z,102436.03
2024-05-09T14:11:38.281Z,102422.22
2024-05-09T14:15:40.602Z,102423.03
2024-05-09T14:19:42.448Z,102433.34
2024-05-09T14:23:44.100Z,102430.19
2024-05-09T14:27:45.867Z,102425.81
2024-05-09T14:31:47.647Z,102416.41
2024-05-09T14:35:49.273Z,102414.69
2024-05-09T14:39:50.948Z,102417.13
2024-05-09T14:43:52.635Z,102399.31
2024-05-09T14:47:54.461Z,102391.38
2024-05-09T14:51:56.226Z,102382.94
2024-05-09T14:55:57.949Z,102392.25
2024-05-09T15:00:00.252Z,102384.00
2024-05-09T15:04:02.288Z,102371.81
2024-05-09T15:08:08.048Z,102390.91
2024-05-09T15:12:09.727Z,102383.06
2024-05-09T15:16:11.410Z,102372.69
2024-05-09T15:20:17.311Z,102370.97
2024-05-09T15:24:22.056Z,102363.50
2024-05-09T15:28:23.820Z,102362.13
2024-05-09T15:32:29.439Z,102360.16
2024-05-09T15:36:31.182Z,102361.63
2024-05-09T15:40:39.478Z,102366.03
2024-05-09T15:44:42.463Z,102353.16
2024-05-09T15:48:44.966Z,102361.84
2024-05-09T15:52:46.632Z,102359.38
2024-05-09T15:56:50.868Z,102358.31
2024-05-09T16:00:52.889Z,102349.16
2024-05-09T16:04:54.727Z,102343.66
2024-05-09T16:08:56.543Z,102342.97
2024-05-09T16:12:59.186Z,102345.34
2024-05-09T16:17:01.071Z,102340.00
2024-05-09T16:21:02.899Z,102335.78
2024-05-09T16:25:05.068Z,102342.56
2024-05-09T16:29:06.735Z,102343.59
2024-05-09T16:33:08.927Z,102329.13
2024-05-09T16:37:12.604Z,102343.19
2024-05-09T16:41:15.454Z,102333.97
2024-05-09T16:45:17.202Z,102330.09
2024-05-09T16:49:19.078Z,102328.13
2024-05-09T16:53:20.874Z,102328.00
2024-05-09T16:57:22.632Z,102323.41
2024-05-09T17:01:24.326Z,102327.94
2024-05-09T17:05:28.445Z,102321.63
2024-05-09T17:09:30.194Z,102321.72
2024-05-09T17:13:32.485Z,102319.97
2024-05-09T17:17:34.507Z,102324.97
2024-05-09T17:21:38.314Z,102325.53
2024-05-09T17:25:40.372Z,102317.97
2024-05-09T17:29:42.156Z,102318.94
2024-05-09T17:33:43.890Z,102307.38
2024-05-09T17:37:45.619Z,102310.13
2024-05-09T17:41:47.268Z,102307.53
2024-05-09T17:45:48.982Z,102298.72
2024-05-09T17:49:50.683Z,102300.84
2024-05-09T17:53:52.369Z,102296.16
2024-05-09T17:57:54.201Z,102301.88
2024-05-09T18:01:56.141Z,102291.16
2024-05-09T18:05:58.615Z,102299.63
2024-05-09T18:10:00.430Z,102294.59
2024-05-09T18:14:02.210Z,102295.19
2024-05-09T18:18:05.040Z,102292.63
2024-05-09T18:22:07.038Z,102291.06
2024-05-09T18:26:09.021Z,102290.47
2024-05-09T18:30:23.768Z,102294.41
2024-05-09T18:34:29.905Z,102294.22
2024-05-09T18:38:31.677Z,102293.28
2024-05-09T18:42:33.302Z,102291.66
2024-05-09T18:46:35.113Z,102289.88
2024-05-09T18:50:39.799Z,102296.53
2024-05-09T18:54:43.220Z,102299.09
2024-05-09T18:58:45.010Z,102291.50
2024-05-09T19:02:47.020Z,102289.88
2024-05-09T19:06:49.105Z,102296.59
2024-05-09T19:10:52.453Z,102292.50
2024-05-09T19:14:54.185Z,102300.03
2024-05-09T19:18:56.895Z,102296.31
2024-05-09T19:22:58.883Z,102296.72
2024-05-09T19:27:01.856Z,102290.34
2024-05-09T19:31:03.659Z,102287.84
2024-05-09T19:35:05.591Z,102297.59
2024-05-09T19:39:07.225Z,102293.19
2024-05-09T19:43:09.104Z,102299.72
2024-05-09T19:47:12.026Z,102302.09
2024-05-09T19:51:13.652Z,102293.00
2024-05-09T19:55:15.623Z,102295.84
2024-05-09T19:59:17.379Z,102298.06
2024-05-09T20:03:19.241Z,102292.84
2024-05-09T20:07:20.952Z,102300.22
2024-05-09T20:11:24.336Z,102288.81
2024-05-09T20:15:26.031Z,102294.47
2024-05-09T20:19:27.816Z,102295.06
2024-05-09T20:23:29.872Z,102291.00
2024-05-09T20:27:31.537Z,102303.91
2024-05-09T20:31:33.261Z,102298.34
2024-05-09T20:35:35.238Z,102298.22
2024-05-09T20:39:37.011Z,102299.81
2024-05-09T20:43:38.675Z,102302.00
2024-05-09T20:47:40.472Z,102291.66
2024-05-09T20:51:42.227Z,102288.22
2024-05-09T20:55:44.905Z,102296.72
2024-05-09T20:59:46.967Z,102284.03
2024-05-09T21:03:48.927Z,102291.56
2024-05-09T21:07:50.656Z,102294.13
2024-05-09T21:11:52.261Z,102290.22
2024-05-09T21:15:54.006Z,102295.66
2024-05-09T21:19:55.634Z,102290.19
2024-05-09T21:23:57.407Z,102292.66
2024-05-09T21:27:59.161Z,102298.13
2024-05-09T21:32:00.823Z,102297.66
2024-05-09T21:36:02.978Z,102292.88
2024-05-09T21:40:11.248Z,102281.47
2024-05-09T21:44:15.374Z,102282.41
2024-05-09T21:48:17.108Z,102280.97
2024-05-09T21:52:19.378Z,102281.28
2024-05-09T21:56:21.102Z,102281.66
2024-05-09T22:00:29.201Z,102272.66
2024-05-09T22:04:37.371Z,102266.72
2024-05-09T22:08:39.027Z,102270.69
2024-05-09T22:12:40.691Z,102269.81
2024-05-09T22:16:42.781Z,102266.56
2024-05-09T22:20:46.251Z,102268.03
2024-05-09T22:24:48.788Z,102271.69
2024-05-09T22:28:50.507Z,102264.84
2024-05-09T22:32:52.290Z,102265.75
2024-05-09T22:36:53.973Z,102266.16
2024-05-09T22:40:55.690Z,102264.16
2024-05-09T22:44:57.355Z,102263.94
2024-05-09T22:48:59.134Z,102260.97
2024-05-09T22:53:01.071Z,102263.84
2024-05-09T22:57:02.986Z,102266.72
2024-05-09T23:01:04.969Z,102260.97
2024-05-09T23:05:06.797Z,102252.41
2024-05-09T23:09:09.963Z,102247.78
2024-05-09T23:13:13.389Z,102252.22
2024-05-09T23:17:15.059Z,102246.81
2024-05-09T23:21:17.639Z,102247.84
2024-05-09T23:25:19.553Z,102237.78
2024-05-09T23:29:21.276Z,102230.47
2024-05-09T23:33:23.121Z,102225.56
2024-05-09T23:37:26.019Z,102227.03
2024-05-09T23:41:27.635Z,102226.97
2024-05-09T23:45:29.199Z,102215.25
2024-05-09T23:49:31.049Z,102223.63
2024-05-09T23:53:32.900Z,102224.19
2024-05-09T23:57:34.646Z,102223.03
